sensor_id;sensor_type;location;lat;lon;timestamp;temperature;humidity
9762;DHT22;4920;49.594;11.022;2024-03-23T00:54:04;8.50;99.90
9762;DHT22;4920;49.594;11.022;2024-03-23T00:56:33;8.40;99.90
9762;DHT22;4920;49.594;11.022;2024-03-23T00:59:01;8.40;99.90
9762;DHT22;4920;49.594;11.022;2024-03-23T01:01:29;8.40;99.90
9762;DHT22;4920;49.594;11.022;2024-03-23T01:03:56;8.50;99.90
9762;DHT22;4920;49.594;11.022;2024-03-23T01:06:24;8.50;99.90
9762;DHT22;4920;49.594;11.022;2024-03-23T01:08:51;8.70;99.90
9762;DHT22;4920;49.594;11.022;2024-03-23T01:11:19;8.70;99.90
9762;DHT22;4920;49.594;11.022;2024-03-23T01:13:48;8.80;99.90
9762;DHT22;4920;49.594;11.022;2024-03-23T01:16:16;8.80;99.90
9762;DHT22;4920;49.594;11.022;2024-03-23T01:18:43;8.90;99.90
9762;DHT22;4920;49.594;11.022;2024-03-23T01:21:11;9.00;99.90
9762;DHT22;4920;49.594;11.022;2024-03-23T01:23:38;9.00;99.90
9762;DHT22;4920;49.594;11.022;2024-03-23T01:26:06;9.00;99.90
9762;DHT22;4920;49.594;11.022;2024-03-23T01:28:33;9.00;99.90
9762;DHT22;4920;49.594;11.022;2024-03-23T01:31:03;9.10;99.90
9762;DHT22;4920;49.594;11.022;2024-03-23T01:33:30;9.10;99.90
9762;DHT22;4920;49.594;11.022;2024-03-23T01:35:58;9.10;99.90
9762;DHT22;4920;49.594;11.022;2024-03-23T01:38:25;9.20;99.90
9762;DHT22;4920;49.594;11.022;2024-03-23T01:40:57;9.30;99.90
9762;DHT22;4920;49.594;11.022;2024-03-23T01:43:24;9.30;99.90
9762;DHT22;4920;49.594;11.022;2024-03-23T01:45:52;9.30;99.90
9762;DHT22;4920;49.594;11.022;2024-03-23T01:48:21;9.30;99.90
9762;DHT22;4920;49.594;11.022;2024-03-23T01:50:49;9.30;99.90
9762;DHT22;4920;49.594;11.022;2024-03-23T01:53:16;9.30;99.90
9762;DHT22;4920;49.594;11.022;2024-03-23T01:55:47;9.40;99.90
9762;DHT22;4920;49.594;11.022;2024-03-23T01:58:14;9.40;99.90
9762;DHT22;4920;49.594;11.022;2024-03-23T02:00:43;9.40;99.90
9762;DHT22;4920;49.594;11.022;2024-03-23T02:03:24;9.40;99.90
9762;DHT22;4920;49.594;11.022;2024-03-23T02:05:53;9.50;99.90
9762;DHT22;4920;49.594;11.022;2024-03-23T02:08:21;9.50;99.90
9762;DHT22;4920;49.594;11.022;2024-03-23T02:10:50;9.60;99.90
9762;DHT22;4920;49.594;11.022;2024-03-23T02:13:18;9.60;99.90
9762;DHT22;4920;49.594;11.022;2024-03-23T02:15:46;9.60;99.90
9762;DHT22;4920;49.594;11.022;2024-03-23T02:18:13;9.70;99.90
9762;DHT22;4920;49.594;11.022;2024-03-23T02:20:43;9.70;99.90
9762;DHT22;4920;49.594;11.022;2024-03-23T02:23:14;9.70;99.90
9762;DHT22;4920;49.594;11.022;2024-03-23T02:25:44;9.70;99.90
9762;DHT22;4920;49.594;11.022;2024-03-23T02:28:11;9.80;99.90
9762;DHT22;4920;49.594;11.022;2024-03-23T02:30:40;9.80;99.90
9762;DHT22;4920;49.594;11.022;2024-03-23T02:33:07;9.70;99.90
9762;DHT22;4920;49.594;11.022;2024-03-23T02:35:35;9.70;99.90
9762;DHT22;4920;49.594;11.022;2024-03-23T02:38:02;9.60;99.90
9762;DHT22;4920;49.594;11.022;2024-03-23T02:40:32;9.60;99.90
9762;DHT22;4920;49.594;11.022;2024-03-23T02:42:59;9.60;99.90
9762;DHT22;4920;49.594;11.022;2024-03-23T02:45:27;9.70;99.90
9762;DHT22;4920;49.594;11.022;2024-03-23T02:47:54;9.70;99.90
9762;DHT22;4920;49.594;11.022;2024-03-23T02:50:23;9.70;99.90
9762;DHT22;4920;49.594;11.022;2024-03-23T02:52:50;9.80;99.90
9762;DHT22;4920;49.594;11.022;2024-03-23T02:55:18;9.80;99.90
9762;DHT22;4920;49.594;11.022;2024-03-23T02:57:46;9.90;99.90
9762;DHT22;4920;49.594;11.022;2024-03-23T03:00:14;9.90;99.90
9762;DHT22;4920;49.594;11.022;2024-03-23T03:02:41;9.90;99.90
9762;DHT22;4920;49.594;11.022;2024-03-23T03:05:10;10.00;99.90
9762;DHT22;4920;49.594;11.022;2024-03-23T03:07:37;10.00;99.90
9762;DHT22;4920;49.594;11.022;2024-03-23T03:10:07;10.00;99.90
9762;DHT22;4920;49.594;11.022;2024-03-23T03:12:37;10.10;99.90
9762;DHT22;4920;49.594;11.022;2024-03-23T03:15:08;10.20;99.90
9762;DHT22;4920;49.594;11.022;2024-03-23T03:17:35;10.20;99.90
9762;DHT22;4920;49.594;11.022;2024-03-23T03:20:04;10.20;99.90
9762;DHT22;4920;49.594;11.022;2024-03-23T03:22:33;10.20;99.90
9762;DHT22;4920;49.594;11.022;2024-03-23T03:25:01;10.20;99.90
9762;DHT22;4920;49.594;11.022;2024-03-23T03:27:29;10.20;99.90
9762;DHT22;4920;49.594;11.022;2024-03-23T03:29:57;10.20;99.90
9762;DHT22;4920;49.594;11.022;2024-03-23T03:32:26;10.20;99.90
9762;DHT22;4920;49.594;11.022;2024-03-23T03:34:54;10.20;99.90
9762;DHT22;4920;49.594;11.022;2024-03-23T03:37:21;10.20;99.90
9762;DHT22;4920;49.594;11.022;2024-03-23T03:39:49;10.20;99.90
9762;DHT22;4920;49.594;11.022;2024-03-23T03:42:16;10.10;99.90
9762;DHT22;4920;49.594;11.022;2024-03-23T03:44:44;10.00;99.90
9762;DHT22;4920;49.594;11.022;2024-03-23T03:47:11;9.90;99.90
9762;DHT22;4920;49.594;11.022;2024-03-23T03:49:40;9.80;99.90
9762;DHT22;4920;49.594;11.022;2024-03-23T03:52:07;9.70;99.90
9762;DHT22;4920;49.594;11.022;2024-03-23T03:54:36;9.60;99.90
9762;DHT22;4920;49.594;11.022;2024-03-23T03:57:03;9.50;99.90
9762;DHT22;4920;49.594;11.022;2024-03-23T03:59:31;9.40;99.90
9762;DHT22;4920;49.594;11.022;2024-03-23T04:01:58;9.40;99.90
9762;DHT22;4920;49.594;11.022;2024-03-23T04:04:26;9.30;99.90
9762;DHT22;4920;49.594;11.022;2024-03-23T04:06:59;9.20;99.90
9762;DHT22;4920;49.594;11.022;2024-03-23T04:09:28;9.20;99.90
9762;DHT22;4920;49.594;11.022;2024-03-23T04:11:55;9.10;99.90
9762;DHT22;4920;49.594;11.022;2024-03-23T04:14:23;9.00;99.90
9762;DHT22;4920;49.594;11.022;2024-03-23T04:16:50;8.90;99.90
9762;DHT22;4920;49.594;11.022;2024-03-23T04:19:18;8.90;99.90
9762;DHT22;4920;49.594;11.022;2024-03-23T04:21:46;9.00;99.90
9762;DHT22;4920;49.594;11.022;2024-03-23T04:24:15;9.00;99.90
9762;DHT22;4920;49.594;11.022;2024-03-23T04:26:45;9.10;99.90
9762;DHT22;4920;49.594;11.022;2024-03-23T04:29:14;9.20;99.90
9762;DHT22;4920;49.594;11.022;2024-03-23T04:31:40;9.20;99.90
9762;DHT22;4920;49.594;11.022;2024-03-23T04:34:09;9.30;99.90
9762;DHT22;4920;49.594;11.022;2024-03-23T04:36:36;9.40;99.90
9762;DHT22;4920;49.594;11.022;2024-03-23T04:39:04;9.40;99.90
9762;DHT22;4920;49.594;11.022;2024-03-23T04:41:36;9.50;99.90
9762;DHT22;4920;49.594;11.022;2024-03-23T04:44:04;9.60;99.90
9762;DHT22;4920;49.594;11.022;2024-03-23T04:46:33;9.60;99.90
9762;DHT22;4920;49.594;11.022;2024-03-23T04:49:01;9.70;99.90
9762;DHT22;4920;49.594;11.022;2024-03-23T04:51:35;9.80;99.90
9762;DHT22;4920;49.594;11.022;2024-03-23T04:54:04;9.80;99.90
9762;DHT22;4920;49.594;11.022;2024-03-23T04:56:33;9.90;99.90
9762;DHT22;4920;49.594;11.022;2024-03-23T04:59:01;9.90;99.90
9762;DHT22;4920;49.594;11.022;2024-03-23T05:01:31;9.90;99.90
9762;DHT22;4920;49.594;11.022;2024-03-23T05:04:03;9.80;99.90
9762;DHT22;4920;49.594;11.022;2024-03-23T05:06:31;9.70;99.90
9762;DHT22;4920;49.594;11.022;2024-03-23T05:08:58;9.70;99.90
9762;DHT22;4920;49.594;11.022;2024-03-23T05:11:28;9.70;99.90
9762;DHT22;4920;49.594;11.022;2024-03-23T05:13:54;9.70;99.90
9762;DHT22;4920;49.594;11.022;2024-03-23T05:16:24;9.80;99.90
9762;DHT22;4920;49.594;11.022;2024-03-23T05:18:52;9.80;99.90
9762;DHT22;4920;49.594;11.022;2024-03-23T05:21:21;9.90;99.90
9762;DHT22;4920;49.594;11.022;2024-03-23T05:23:48;9.90;99.90
9762;DHT22;4920;49.594;11.022;2024-03-23T05:26:16;10.00;99.90
9762;DHT22;4920;49.594;11.022;2024-03-23T05:28:43;10.00;99.90
9762;DHT22;4920;49.594;11.022;2024-03-23T05:31:12;10.00;99.90
9762;DHT22;4920;49.594;11.022;2024-03-23T05:33:40;10.10;99.90
9762;DHT22;4920;49.594;11.022;2024-03-23T05:36:08;10.10;99.90
9762;DHT22;4920;49.594;11.022;2024-03-23T05:38:38;10.10;99.90
9762;DHT22;4920;49.594;11.022;2024-03-23T05:41:06;10.20;99.90
9762;DHT22;4920;49.594;11.022;2024-03-23T05:43:33;10.20;99.90
9762;DHT22;4920;49.594;11.022;2024-03-23T05:46:01;10.20;99.90
9762;DHT22;4920;49.594;11.022;2024-03-23T05:48:28;10.20;99.90
9762;DHT22;4920;49.594;11.022;2024-03-23T05:50:58;10.30;99.90
9762;DHT22;4920;49.594;11.022;2024-03-23T05:53:26;10.30;99.90
9762;DHT22;4920;49.594;11.022;2024-03-23T05:56:01;10.40;99.90
9762;DHT22;4920;49.594;11.022;2024-03-23T05:58:30;10.40;99.90
9762;DHT22;4920;49.594;11.022;2024-03-23T06:00:59;10.40;99.90
9762;DHT22;4920;49.594;11.022;2024-03-23T06:03:26;10.40;99.90
9762;DHT22;4920;49.594;11.022;2024-03-23T06:05:55;10.50;99.90
9762;DHT22;4920;49.594;11.022;2024-03-23T06:08:24;10.50;99.90
9762;DHT22;4920;49.594;11.022;2024-03-23T06:10:52;10.50;99.90
9762;DHT22;4920;49.594;11.022;2024-03-23T06:13:19;10.50;99.90
9762;DHT22;4920;49.594;11.022;2024-03-23T06:15:51;10.60;99.90
9762;DHT22;4920;49.594;11.022;2024-03-23T06:18:18;10.60;99.90
9762;DHT22;4920;49.594;11.022;2024-03-23T06:20:46;10.70;99.90
9762;DHT22;4920;49.594;11.022;2024-03-23T06:23:13;10.70;99.90
9762;DHT22;4920;49.594;11.022;2024-03-23T06:25:45;10.80;99.90
9762;DHT22;4920;49.594;11.022;2024-03-23T06:28:12;10.80;99.90
9762;DHT22;4920;49.594;11.022;2024-03-23T06:30:40;10.90;99.90
9762;DHT22;4920;49.594;11.022;2024-03-23T06:33:07;10.90;99.90
9762;DHT22;4920;49.594;11.022;2024-03-23T06:35:35;10.90;99.90
9762;DHT22;4920;49.594;11.022;2024-03-23T06:38:02;10.90;99.90
9762;DHT22;4920;49.594;11.022;2024-03-23T06:40:31;10.90;99.90
9762;DHT22;4920;49.594;11.022;2024-03-23T06:42:59;10.90;99.90
9762;DHT22;4920;49.594;11.022;2024-03-23T06:45:27;11.00;99.90
9762;DHT22;4920;49.594;11.022;2024-03-23T06:47:54;11.00;99.90
9762;DHT22;4920;49.594;11.022;2024-03-23T06:50:25;11.00;99.90
9762;DHT22;4920;49.594;11.022;2024-03-23T06:52:52;11.10;99.90
9762;DHT22;4920;49.594;11.022;2024-03-23T06:55:20;11.10;99.90
9762;DHT22;4920;49.594;11.022;2024-03-23T06:57:47;11.10;99.90
9762;DHT22;4920;49.594;11.022;2024-03-23T07:00:16;11.20;99.90
9762;DHT22;4920;49.594;11.022;2024-03-23T07:02:43;11.30;99.90
9762;DHT22;4920;49.594;11.022;2024-03-23T07:05:12;11.30;99.90
9762;DHT22;4920;49.594;11.022;2024-03-23T07:07:39;11.40;99.90
9762;DHT22;4920;49.594;11.022;2024-03-23T07:10:07;11.50;99.90
9762;DHT22;4920;49.594;11.022;2024-03-23T07:12:34;11.50;99.90
9762;DHT22;4920;49.594;11.022;2024-03-23T07:15:03;11.50;99.90
9762;DHT22;4920;49.594;11.022;2024-03-23T07:17:32;11.50;99.90
9762;DHT22;4920;49.594;11.022;2024-03-23T07:20:01;11.60;99.90
9762;DHT22;4920;49.594;11.022;2024-03-23T07:22:30;11.60;99.90
9762;DHT22;4920;49.594;11.022;2024-03-23T07:25:00;11.60;99.90
9762;DHT22;4920;49.594;11.022;2024-03-23T07:27:27;11.60;99.90
9762;DHT22;4920;49.594;11.022;2024-03-23T07:29:55;11.60;99.90
9762;DHT22;4920;49.594;11.022;2024-03-23T07:32:22;11.60;99.90
9762;DHT22;4920;49.594;11.022;2024-03-23T07:34:51;11.60;99.90
9762;DHT22;4920;49.594;11.022;2024-03-23T07:37:18;11.50;99.90
9762;DHT22;4920;49.594;11.022;2024-03-23T07:39:46;11.40;99.90
9762;DHT22;4920;49.594;11.022;2024-03-23T07:42:13;11.40;99.90
9762;DHT22;4920;49.594;11.022;2024-03-23T07:44:42;11.30;99.90
9762;DHT22;4920;49.594;11.022;2024-03-23T07:47:08;11.30;99.90
9762;DHT22;4920;49.594;11.022;2024-03-23T07:49:37;11.30;99.90
9762;DHT22;4920;49.594;11.022;2024-03-23T07:52:08;11.30;99.90
9762;DHT22;4920;49.594;11.022;2024-03-23T07:54:36;11.30;99.90
9762;DHT22;4920;49.594;11.022;2024-03-23T07:57:03;11.30;99.90
9762;DHT22;4920;49.594;11.022;2024-03-23T07:59:32;11.30;99.90
9762;DHT22;4920;49.594;11.022;2024-03-23T08:02:00;11.30;99.90
9762;DHT22;4920;49.594;11.022;2024-03-23T08:04:28;11.20;99.90
9762;DHT22;4920;49.594;11.022;2024-03-23T08:06:55;11.20;99.90
9762;DHT22;4920;49.594;11.022;2024-03-23T08:09:25;11.20;99.90
9762;DHT22;4920;49.594;11.022;2024-03-23T08:11:52;11.10;99.90
9762;DHT22;4920;49.594;11.022;2024-03-23T08:14:20;11.00;99.90
9762;DHT22;4920;49.594;11.022;2024-03-23T08:16:47;10.90;99.90
9762;DHT22;4920;49.594;11.022;2024-03-23T08:19:17;10.80;99.90
9762;DHT22;4920;49.594;11.022;2024-03-23T08:21:44;10.60;99.90
9762;DHT22;4920;49.594;11.022;2024-03-23T08:24:13;10.50;99.90
9762;DHT22;4920;49.594;11.022;2024-03-23T08:26:42;10.40;99.90
9762;DHT22;4920;49.594;11.022;2024-03-23T08:29:10;10.50;99.90
9762;DHT22;4920;49.594;11.022;2024-03-23T08:31:38;10.60;99.90
9762;DHT22;4920;49.594;11.022;2024-03-23T08:34:06;10.70;99.90
9762;DHT22;4920;49.594;11.022;2024-03-23T08:36:33;10.80;99.90
9762;DHT22;4920;49.594;11.022;2024-03-23T08:39:01;10.90;99.90
9762;DHT22;4920;49.594;11.022;2024-03-23T08:41:28;10.90;99.90
9762;DHT22;4920;49.594;11.022;2024-03-23T08:43:57;10.90;99.90
9762;DHT22;4920;49.594;11.022;2024-03-23T08:46:24;10.70;99.90
9762;DHT22;4920;49.594;11.022;2024-03-23T08:48:52;10.60;99.90
9762;DHT22;4920;49.594;11.022;2024-03-23T08:51:20;10.40;99.90
9762;DHT22;4920;49.594;11.022;2024-03-23T08:53:47;10.20;99.90
9762;DHT22;4920;49.594;11.022;2024-03-23T08:56:16;10.10;99.90
9762;DHT22;4920;49.594;11.022;2024-03-23T08:58:43;9.90;99.90
9762;DHT22;4920;49.594;11.022;2024-03-23T09:01:13;9.80;99.90
9762;DHT22;4920;49.594;11.022;2024-03-23T09:03:40;9.60;99.90
9762;DHT22;4920;49.594;11.022;2024-03-23T09:06:09;9.60;99.90
9762;DHT22;4920;49.594;11.022;2024-03-23T09:08:36;9.50;99.90
9762;DHT22;4920;49.594;11.022;2024-03-23T09:11:05;9.40;99.90
9762;DHT22;4920;49.594;11.022;2024-03-23T09:13:33;9.40;99.90
9762;DHT22;4920;49.594;11.022;2024-03-23T09:16:01;9.40;99.90
9762;DHT22;4920;49.594;11.022;2024-03-23T09:18:32;9.50;99.90
9762;DHT22;4920;49.594;11.022;2024-03-23T09:21:01;9.60;99.90
9762;DHT22;4920;49.594;11.022;2024-03-23T09:23:28;9.90;99.90
9762;DHT22;4920;49.594;11.022;2024-03-23T09:25:56;10.10;99.90
9762;DHT22;4920;49.594;11.022;2024-03-23T09:28:25;10.40;99.90
9762;DHT22;4920;49.594;11.022;2024-03-23T09:30:53;10.70;99.90
9762;DHT22;4920;49.594;11.022;2024-03-23T09:33:20;10.90;99.90
9762;DHT22;4920;49.594;11.022;2024-03-23T09:35:50;10.80;99.90
9762;DHT22;4920;49.594;11.022;2024-03-23T09:38:17;10.60;99.90
9762;DHT22;4920;49.594;11.022;2024-03-23T09:40:45;10.30;99.90
9762;DHT22;4920;49.594;11.022;2024-03-23T09:43:14;10.40;99.90
9762;DHT22;4920;49.594;11.022;2024-03-23T09:45:44;10.60;99.90
9762;DHT22;4920;49.594;11.022;2024-03-23T09:48:12;10.60;99.90
9762;DHT22;4920;49.594;11.022;2024-03-23T09:50:41;10.60;99.90
9762;DHT22;4920;49.594;11.022;2024-03-23T09:53:11;10.70;99.90
9762;DHT22;4920;49.594;11.022;2024-03-23T09:55:41;10.80;99.90
9762;DHT22;4920;49.594;11.022;2024-03-23T09:58:08;10.80;99.90
9762;DHT22;4920;49.594;11.022;2024-03-23T10:00:40;10.80;99.90
9762;DHT22;4920;49.594;11.022;2024-03-23T10:03:07;10.80;99.90
9762;DHT22;4920;49.594;11.022;2024-03-23T10:05:37;10.70;99.90
9762;DHT22;4920;49.594;11.022;2024-03-23T10:08:18;10.60;99.90
9762;DHT22;4920;49.594;11.022;2024-03-23T10:10:46;10.50;99.90
9762;DHT22;4920;49.594;11.022;2024-03-23T10:13:24;10.50;99.90
9762;DHT22;4920;49.594;11.022;2024-03-23T10:15:56;10.40;99.90
9762;DHT22;4920;49.594;11.022;2024-03-23T10:18:25;10.30;99.90
9762;DHT22;4920;49.594;11.022;2024-03-23T10:21:07;10.30;99.90
9762;DHT22;4920;49.594;11.022;2024-03-23T10:23:37;10.20;99.90
9762;DHT22;4920;49.594;11.022;2024-03-23T10:26:13;10.20;99.90
9762;DHT22;4920;49.594;11.022;2024-03-23T10:28:51;10.10;99.90
9762;DHT22;4920;49.594;11.022;2024-03-23T10:31:20;10.10;99.90
9762;DHT22;4920;49.594;11.022;2024-03-23T10:33:47;10.40;99.90
9762;DHT22;4920;49.594;11.022;2024-03-23T10:36:16;10.60;99.90
9762;DHT22;4920;49.594;11.022;2024-03-23T10:38:45;10.80;99.90
9762;DHT22;4920;49.594;11.022;2024-03-23T10:41:14;11.10;99.90
9762;DHT22;4920;49.594;11.022;2024-03-23T10:43:44;11.30;99.90
9762;DHT22;4920;49.594;11.022;2024-03-23T10:46:13;11.60;99.90
9762;DHT22;4920;49.594;11.022;2024-03-23T10:48:40;11.80;99.90
9762;DHT22;4920;49.594;11.022;2024-03-23T10:51:10;11.90;99.90
9762;DHT22;4920;49.594;11.022;2024-03-23T10:53:37;11.50;99.90
9762;DHT22;4920;49.594;11.022;2024-03-23T10:56:07;11.30;99.90
9762;DHT22;4920;49.594;11.022;2024-03-23T10:58:38;11.10;99.90
9762;DHT22;4920;49.594;11.022;2024-03-23T11:01:06;10.90;99.90
9762;DHT22;4920;49.594;11.022;2024-03-23T11:03:35;10.70;99.90
9762;DHT22;4920;49.594;11.022;2024-03-23T11:06:04;10.40;99.90
9762;DHT22;4920;49.594;11.022;2024-03-23T11:08:36;10.30;99.90
9762;DHT22;4920;49.594;11.022;2024-03-23T11:11:21;10.30;99.90
9762;DHT22;4920;49.594;11.022;2024-03-23T11:13:50;10.40;99.90
9762;DHT22;4920;49.594;11.022;2024-03-23T11:16:23;10.50;99.90
9762;DHT22;4920;49.594;11.022;2024-03-23T11:18:50;10.40;99.90
9762;DHT22;4920;49.594;11.022;2024-03-23T11:21:53;10.50;99.90
9762;DHT22;4920;49.594;11.022;2024-03-23T11:24:21;10.40;99.90
9762;DHT22;4920;49.594;11.022;2024-03-23T11:26:50;10.60;99.90
9762;DHT22;4920;49.594;11.022;2024-03-23T11:29:18;10.80;99.90
9762;DHT22;4920;49.594;11.022;2024-03-23T11:31:46;10.90;99.90
9762;DHT22;4920;49.594;11.022;2024-03-23T11:34:15;11.10;99.90
9762;DHT22;4920;49.594;11.022;2024-03-23T11:36:43;11.60;99.90
9762;DHT22;4920;49.594;11.022;2024-03-23T11:39:14;12.00;99.90
9762;DHT22;4920;49.594;11.022;2024-03-23T11:41:47;11.90;99.90
9762;DHT22;4920;49.594;11.022;2024-03-23T11:44:17;11.70;99.90
9762;DHT22;4920;49.594;11.022;2024-03-23T11:46:45;11.40;99.90
9762;DHT22;4920;49.594;11.022;2024-03-23T11:49:22;11.30;99.90
9762;DHT22;4920;49.594;11.022;2024-03-23T11:51:55;11.30;99.90
9762;DHT22;4920;49.594;11.022;2024-03-23T11:54:23;11.30;99.90
9762;DHT22;4920;49.594;11.022;2024-03-23T11:56:56;11.30;99.90
9762;DHT22;4920;49.594;11.022;2024-03-23T11:59:35;11.30;99.90
9762;DHT22;4920;49.594;11.022;2024-03-23T12:02:07;11.50;99.90
9762;DHT22;4920;49.594;11.022;2024-03-23T12:04:34;11.80;99.90
9762;DHT22;4920;49.594;11.022;2024-03-23T12:07:11;12.00;99.90
9762;DHT22;4920;49.594;11.022;2024-03-23T12:09:38;12.30;99.90
9762;DHT22;4920;49.594;11.022;2024-03-23T12:12:08;12.50;99.90
9762;DHT22;4920;49.594;11.022;2024-03-23T12:14:37;12.50;99.90
9762;DHT22;4920;49.594;11.022;2024-03-23T12:17:13;12.30;99.90
9762;DHT22;4920;49.594;11.022;2024-03-23T12:19:41;11.90;99.90
9762;DHT22;4920;49.594;11.022;2024-03-23T12:22:11;11.70;99.90
9762;DHT22;4920;49.594;11.022;2024-03-23T12:24:38;11.60;99.90
9762;DHT22;4920;49.594;11.022;2024-03-23T12:27:11;11.60;98.80
9762;DHT22;4920;49.594;11.022;2024-03-23T12:29:41;11.60;98.20
9762;DHT22;4920;49.594;11.022;2024-03-23T12:32:10;11.60;97.30
9762;DHT22;4920;49.594;11.022;2024-03-23T12:34:37;11.60;97.00
9762;DHT22;4920;49.594;11.022;2024-03-23T12:37:05;11.70;97.10
9762;DHT22;4920;49.594;11.022;2024-03-23T12:39:32;11.80;96.80
9762;DHT22;4920;49.594;11.022;2024-03-23T12:42:02;11.90;97.40
9762;DHT22;4920;49.594;11.022;2024-03-23T12:44:29;11.80;97.00
9762;DHT22;4920;49.594;11.022;2024-03-23T12:46:59;11.90;97.30
9762;DHT22;4920;49.594;11.022;2024-03-23T12:49:26;12.00;96.40
9762;DHT22;4920;49.594;11.022;2024-03-23T12:51:56;12.20;96.80
9762;DHT22;4920;49.594;11.022;2024-03-23T12:54:23;12.40;97.10
9762;DHT22;4920;49.594;11.022;2024-03-23T12:56:51;12.60;95.60
9762;DHT22;4920;49.594;11.022;2024-03-23T12:59:18;12.70;95.00
9762;DHT22;4920;49.594;11.022;2024-03-23T13:01:46;12.80;95.10
9762;DHT22;4920;49.594;11.022;2024-03-23T13:04:15;12.90;95.20
9762;DHT22;4920;49.594;11.022;2024-03-23T13:06:43;13.10;93.80
9762;DHT22;4920;49.594;11.022;2024-03-23T13:09:10;12.90;92.90
9762;DHT22;4920;49.594;11.022;2024-03-23T13:11:38;12.80;94.00
9762;DHT22;4920;49.594;11.022;2024-03-23T13:14:06;12.70;94.20
9762;DHT22;4920;49.594;11.022;2024-03-23T13:16:33;12.70;93.50
9762;DHT22;4920;49.594;11.022;2024-03-23T13:19:01;12.50;92.60
9762;DHT22;4920;49.594;11.022;2024-03-23T13:21:31;12.40;92.40
9762;DHT22;4920;49.594;11.022;2024-03-23T13:23:59;12.50;93.00
9762;DHT22;4920;49.594;11.022;2024-03-23T13:26:26;12.80;92.60
9762;DHT22;4920;49.594;11.022;2024-03-23T13:28:54;13.10;91.70
9762;DHT22;4920;49.594;11.022;2024-03-23T13:31:21;13.40;92.10
9762;DHT22;4920;49.594;11.022;2024-03-23T13:33:49;13.60;91.20
9762;DHT22;4920;49.594;11.022;2024-03-23T13:36:16;13.60;90.60
9762;DHT22;4920;49.594;11.022;2024-03-23T13:38:46;13.60;90.60
9762;DHT22;4920;49.594;11.022;2024-03-23T13:41:13;13.40;89.70
9762;DHT22;4920;49.594;11.022;2024-03-23T13:43:41;12.90;88.40
9762;DHT22;4920;49.594;11.022;2024-03-23T13:46:08;12.50;88.20
9762;DHT22;4920;49.594;11.022;2024-03-23T13:48:36;12.10;88.70
9762;DHT22;4920;49.594;11.022;2024-03-23T13:51:04;11.80;90.00
9762;DHT22;4920;49.594;11.022;2024-03-23T13:53:32;11.50;90.30
9762;DHT22;4920;49.594;11.022;2024-03-23T13:56:01;11.20;90.70
9762;DHT22;4920;49.594;11.022;2024-03-23T13:58:29;10.90;91.00
9762;DHT22;4920;49.594;11.022;2024-03-23T14:00:57;10.80;91.50
9762;DHT22;4920;49.594;11.022;2024-03-23T14:03:25;10.70;91.70
9762;DHT22;4920;49.594;11.022;2024-03-23T14:05:52;10.70;92.20
9762;DHT22;4920;49.594;11.022;2024-03-23T14:08:20;11.00;92.30
9762;DHT22;4920;49.594;11.022;2024-03-23T14:10:48;11.20;91.80
9762;DHT22;4920;49.594;11.022;2024-03-23T14:13:17;11.30;91.20
9762;DHT22;4920;49.594;11.022;2024-03-23T14:15:44;11.40;91.30
9762;DHT22;4920;49.594;11.022;2024-03-23T14:18:12;11.30;91.70
9762;DHT22;4920;49.594;11.022;2024-03-23T14:20:40;11.30;91.10
9762;DHT22;4920;49.594;11.022;2024-03-23T14:23:08;11.20;91.20
9762;DHT22;4920;49.594;11.022;2024-03-23T14:25:35;11.10;92.90
9762;DHT22;4920;49.594;11.022;2024-03-23T14:28:04;11.20;94.80
9762;DHT22;4920;49.594;11.022;2024-03-23T14:30:33;11.30;95.30
9762;DHT22;4920;49.594;11.022;2024-03-23T14:33:01;11.30;96.00
9762;DHT22;4920;49.594;11.022;2024-03-23T14:35:28;11.40;96.10
9762;DHT22;4920;49.594;11.022;2024-03-23T14:37:57;11.40;96.60
9762;DHT22;4920;49.594;11.022;2024-03-23T14:40:24;11.40;96.60
9762;DHT22;4920;49.594;11.022;2024-03-23T14:42:54;11.50;96.20
9762;DHT22;4920;49.594;11.022;2024-03-23T14:45:21;11.60;95.80
9762;DHT22;4920;49.594;11.022;2024-03-23T14:47:52;11.70;96.00
9762;DHT22;4920;49.594;11.022;2024-03-23T14:50:19;11.70;96.60
9762;DHT22;4920;49.594;11.022;2024-03-23T14:52:48;11.80;97.00
9762;DHT22;4920;49.594;11.022;2024-03-23T14:55:15;11.70;96.20
9762;DHT22;4920;49.594;11.022;2024-03-23T14:57:43;11.50;95.50
9762;DHT22;4920;49.594;11.022;2024-03-23T15:00:11;11.10;96.20
9762;DHT22;4920;49.594;11.022;2024-03-23T15:02:39;10.90;96.70
9762;DHT22;4920;49.594;11.022;2024-03-23T15:05:08;10.70;97.40
9762;DHT22;4920;49.594;11.022;2024-03-23T15:07:37;10.60;97.40
9762;DHT22;4920;49.594;11.022;2024-03-23T15:10:05;10.50;97.20
9762;DHT22;4920;49.594;11.022;2024-03-23T15:12:34;10.40;97.20
9762;DHT22;4920;49.594;11.022;2024-03-23T15:15:01;10.20;98.20
9762;DHT22;4920;49.594;11.022;2024-03-23T15:17:29;10.10;98.90
9762;DHT22;4920;49.594;11.022;2024-03-23T15:20:01;9.90;99.90
9762;DHT22;4920;49.594;11.022;2024-03-23T15:22:30;9.40;99.90
9762;DHT22;4920;49.594;11.022;2024-03-23T15:24:58;9.10;99.90
9762;DHT22;4920;49.594;11.022;2024-03-23T15:27:26;8.80;99.90
9762;DHT22;4920;49.594;11.022;2024-03-23T15:29:53;8.80;99.90
9762;DHT22;4920;49.594;11.022;2024-03-23T15:32:21;8.90;99.90
9762;DHT22;4920;49.594;11.022;2024-03-23T15:34:48;9.10;99.90
9762;DHT22;4920;49.594;11.022;2024-03-23T15:37:16;9.20;99.90
9762;DHT22;4920;49.594;11.022;2024-03-23T15:39:45;9.20;99.90
9762;DHT22;4920;49.594;11.022;2024-03-23T15:42:13;9.10;99.90
9762;DHT22;4920;49.594;11.022;2024-03-23T15:44:40;9.10;99.90
9762;DHT22;4920;49.594;11.022;2024-03-23T15:47:09;9.10;99.90
9762;DHT22;4920;49.594;11.022;2024-03-23T15:49:35;9.10;99.90
9762;DHT22;4920;49.594;11.022;2024-03-23T15:52:04;9.10;99.90
9762;DHT22;4920;49.594;11.022;2024-03-23T15:54:31;9.10;99.90
9762;DHT22;4920;49.594;11.022;2024-03-23T15:57:00;9.10;99.90
9762;DHT22;4920;49.594;11.022;2024-03-23T15:59:27;9.20;99.90
9762;DHT22;4920;49.594;11.022;2024-03-23T16:01:55;9.20;99.90
9762;DHT22;4920;49.594;11.022;2024-03-23T16:04:22;9.20;99.90
9762;DHT22;4920;49.594;11.022;2024-03-23T16:06:50;9.20;99.90
9762;DHT22;4920;49.594;11.022;2024-03-23T16:09:17;9.10;99.90
9762;DHT22;4920;49.594;11.022;2024-03-23T16:11:45;9.10;99.90
9762;DHT22;4920;49.594;11.022;2024-03-23T16:14:14;9.20;99.90
9762;DHT22;4920;49.594;11.022;2024-03-23T16:16:42;9.30;99.90
9762;DHT22;4920;49.594;11.022;2024-03-23T16:19:09;9.30;99.90
9762;DHT22;4920;49.594;11.022;2024-03-23T16:21:38;9.30;99.90
9762;DHT22;4920;49.594;11.022;2024-03-23T16:24:06;9.20;99.90
9762;DHT22;4920;49.594;11.022;2024-03-23T16:26:35;9.20;99.90
9762;DHT22;4920;49.594;11.022;2024-03-23T16:29:02;9.10;99.90
9762;DHT22;4920;49.594;11.022;2024-03-23T16:31:31;9.00;99.90
9762;DHT22;4920;49.594;11.022;2024-03-23T16:33:58;8.90;99.90
9762;DHT22;4920;49.594;11.022;2024-03-23T16:36:26;8.90;99.90
9762;DHT22;4920;49.594;11.022;2024-03-23T16:38:53;8.90;99.90
9762;DHT22;4920;49.594;11.022;2024-03-23T16:41:22;8.80;99.90
9762;DHT22;4920;49.594;11.022;2024-03-23T16:43:49;8.70;99.90
9762;DHT22;4920;49.594;11.022;2024-03-23T16:46:17;8.60;99.90
9762;DHT22;4920;49.594;11.022;2024-03-23T16:48:46;8.50;99.90
9762;DHT22;4920;49.594;11.022;2024-03-23T16:51:14;8.50;99.90
9762;DHT22;4920;49.594;11.022;2024-03-23T16:53:40;8.50;99.90